Accueil
METAR-TAF:

METAR-TAF

Aéroports :

Balikesir, Turquie

latitude: 39-37N, longitude: 027-55E, altitude: 101 m

Observation

Le bulletin a été fait il y a 1 heure et 16 minutes, à 07:50 UTC
Vent 1 kt de direction variable
Température 11°C
Humidité 71%
Pression 1022 hPa
Visibilité 10 km ou plus
Nuages épars à une hauteur de 3500 ft
Nuages fragmentés à une hauteur de 10000 ft

METAR: LTBF 270750Z VRB01KT 9999 SCT035 BKN100 11/06 Q1022 NOSIG

Heure: 12:06 (09:06 UTC)

Prévision

Le bulletin a été fait il y a 1 heure et 26 minutes, à 07:40 UTC
Prévision valable du 27 à 09 UTC au 27 à 18 UTC
Vent 5 kt de sud/sud-ouest
Visibilité 10 km ou plus
Nuages épars à une hauteur de 3500 ft
Nuages fragmentés à une hauteur de 10000 ft
Probabilité 30%
du 27 à 15 UTC au 27 à 18 UTC
faibles averses de pluie

TAF: LTBF 270740Z 2709/2718 20005KT 9999 SCT035 BKN100 PROB30 2715/2718 -SHRA

Observations et prévisions météorologiques de plus de 4000 aéroports (messages METAR et TAF).

Les stations disponibles sont représentées par des disques jaunes et rouges sur la carte.

Passer la souris dessus pour voir le nom de la station.

Cliquer dessus pour voir les observations et prévisions météorologiques.

Pour changer de carte: cliquez sur les boutons verts avec une croix noire pour zoomer, sur le bouton vert avec un tiret pour effectuer un zoom arrière, ou sur les flèches vertes pour les cartes adjacentes.


METAR-TAF: